Terminal Aerodrome Forecast
Issued by NWS

Home | Current Version | Previous Version | Graphics & Text | Print | Product List | Glossary On
Versions: 1 2 3 4 5 6 7 8 9 10 11 12 13 14 15 16 17 18 19 20 21 22 23 24 25 26 27 28 29 30 31 32
000
FTUS43 KLOT 272104 AAA
TAFMDW
TAF AMD
KMDW 272104Z 2721/2818 28015G23KT P6SM SCT040 BKN200
     FM280000 28010KT P6SM OVC040
     FM280600 29008KT P6SM -SHRA OVC035
     FM280900 30007KT 6SM -SHRA OVC015
      TEMPO 2811/2814 -SHRA OVC008
     FM281500 32010G16KT P6SM OVC010=

USA.gov is the U.S. government's official web portal to all federal, state and local government web resources and services.